createdAt,value
2018-03-07T00:00:52.422Z,54.00
2018-03-07T00:03:23.882Z,58.50
2018-03-07T00:05:54.998Z,53.75
2018-03-07T00:08:26.489Z,61.50
2018-03-07T00:10:57.510Z,62.00
2018-03-07T00:13:28.541Z,57.75
2018-03-07T00:16:00.944Z,58.50
2018-03-07T00:18:32.164Z,57.00
2018-03-07T00:21:03.386Z,53.25
2018-03-07T00:23:35.878Z,58.00
2018-03-07T00:26:06.845Z,63.25
2018-03-07T00:28:38.089Z,60.50
2018-03-07T00:31:09.540Z,63.50
2018-03-07T00:33:40.902Z,60.75
2018-03-07T00:36:12.123Z,64.00
2018-03-07T00:41:23.502Z,65.50
2018-03-07T00:43:54.965Z,64.00
2018-03-07T00:46:26.919Z,60.25
2018-03-07T00:49:00.371Z,63.00
2018-03-07T00:51:31.734Z,62.50
2018-03-07T00:54:03.425Z,62.00
2018-03-07T00:56:34.938Z,67.50
2018-03-07T00:59:06.951Z,66.50
2018-03-07T01:01:38.679Z,58.25
2018-03-07T01:04:10.185Z,67.00
2018-03-07T01:06:41.993Z,63.75
2018-03-07T01:09:13.633Z,63.75
2018-03-07T01:11:46.079Z,65.25
2018-03-07T01:14:17.632Z,63.75
2018-03-07T01:16:50.970Z,69.25
2018-03-07T01:19:22.548Z,61.50
2018-03-07T01:21:53.999Z,67.00
2018-03-07T01:24:25.356Z,68.75
2018-03-07T01:26:56.722Z,61.75
2018-03-07T01:29:33.731Z,63.75
2018-03-07T01:32:06.236Z,64.50
2018-03-07T01:34:38.939Z,58.00
2018-03-07T01:37:10.859Z,62.00
2018-03-07T01:39:42.464Z,62.50
2018-03-07T01:42:13.860Z,68.25
2018-03-07T01:44:47.060Z,59.25
2018-03-07T01:47:19.069Z,66.50
2018-03-07T01:49:51.574Z,61.25
2018-03-07T01:52:23.179Z,64.00
2018-03-07T01:54:54.502Z,59.00
2018-03-07T01:57:25.847Z,63.75
2018-03-07T01:59:58.070Z,59.75
2018-03-07T02:02:30.072Z,57.00
2018-03-07T02:05:01.370Z,73.75
2018-03-07T02:07:32.603Z,72.75
2018-03-07T02:10:04.102Z,76.50
2018-03-07T02:12:35.606Z,72.25
2018-03-07T02:15:08.539Z,83.00
2018-03-07T02:17:39.648Z,76.50
2018-03-07T02:20:17.214Z,71.00
2018-03-07T02:22:48.155Z,76.25
2018-03-07T02:25:19.266Z,68.50
2018-03-07T02:27:52.411Z,78.25
2018-03-07T02:30:23.672Z,71.75
2018-03-07T02:32:54.599Z,84.75
2018-03-07T02:35:27.296Z,78.25
2018-03-07T02:37:58.459Z,80.75
2018-03-07T02:40:29.424Z,74.00
2018-03-07T02:43:00.438Z,71.00
2018-03-07T02:45:31.487Z,70.00
2018-03-07T02:48:03.432Z,71.75
2018-03-07T02:50:34.520Z,70.00
2018-03-07T02:53:05.934Z,66.75
2018-03-07T02:55:38.652Z,70.50
2018-03-07T02:58:09.828Z,70.50
2018-03-07T03:00:41.615Z,62.25
2018-03-07T03:03:13.341Z,73.75
2018-03-07T03:05:45.247Z,74.50
2018-03-07T03:08:16.885Z,68.25
2018-03-07T03:10:49.142Z,68.75
2018-03-07T03:13:21.636Z,72.75
2018-03-07T03:15:52.758Z,69.25
2018-03-07T03:18:23.522Z,72.25
2018-03-07T03:20:54.410Z,69.50
2018-03-07T03:23:25.122Z,67.75
2018-03-07T03:25:56.363Z,69.50
2018-03-07T03:28:27.827Z,68.25
2018-03-07T03:30:59.194Z,71.00
2018-03-07T03:33:30.619Z,63.50
2018-03-07T03:36:01.972Z,69.75
2018-03-07T03:38:32.883Z,63.25
2018-03-07T03:41:03.679Z,69.25
2018-03-07T03:43:34.531Z,61.50
2018-03-07T03:46:05.497Z,65.25
2018-03-07T03:48:36.868Z,70.50
2018-03-07T03:51:08.006Z,75.00
2018-03-07T03:53:38.603Z,67.25
2018-03-07T03:56:09.432Z,68.00
2018-03-07T03:58:40.129Z,62.25
2018-03-07T04:01:11.801Z,65.00
2018-03-07T04:03:44.156Z,62.50
2018-03-07T04:06:15.796Z,72.25
2018-03-07T04:08:46.707Z,64.75
2018-03-07T04:11:17.472Z,67.50
2018-03-07T04:13:48.285Z,67.75
2018-03-07T04:16:20.458Z,67.00
2018-03-07T04:21:32.806Z,59.25
2018-03-07T04:24:03.776Z,59.75
2018-03-07T04:26:34.714Z,72.50
2018-03-07T04:29:06.004Z,63.50
2018-03-07T04:31:37.644Z,66.00
2018-03-07T04:34:09.051Z,64.00
2018-03-07T04:36:40.162Z,61.50
2018-03-07T04:39:11.182Z,65.00
2018-03-07T04:41:42.363Z,69.25
2018-03-07T04:44:13.610Z,68.50
2018-03-07T04:46:45.605Z,65.50
2018-03-07T04:49:16.825Z,71.25
2018-03-07T04:51:47.567Z,65.25
2018-03-07T04:54:19.011Z,66.25
2018-03-07T04:56:50.121Z,70.00
2018-03-07T04:59:20.801Z,65.50
2018-03-07T05:01:52.766Z,73.00
2018-03-07T05:04:23.358Z,65.75
2018-03-07T05:06:55.287Z,61.00
2018-03-07T05:09:26.127Z,71.50
2018-03-07T05:11:58.113Z,72.50
2018-03-07T05:14:29.244Z,64.50
2018-03-07T05:17:00.965Z,72.25
2018-03-07T05:19:32.731Z,72.25
2018-03-07T05:22:03.845Z,72.00
2018-03-07T05:24:41.384Z,72.00
2018-03-07T05:27:12.808Z,73.00
2018-03-07T05:29:44.963Z,70.00
2018-03-07T05:32:16.033Z,67.50
2018-03-07T05:34:47.908Z,74.25
2018-03-07T05:37:19.144Z,71.00
2018-03-07T05:39:50.210Z,66.25
2018-03-07T05:42:21.860Z,74.00
2018-03-07T05:44:57.549Z,66.50
2018-03-07T05:47:30.465Z,65.75
2018-03-07T05:50:03.603Z,64.75
2018-03-07T05:52:35.348Z,64.00
2018-03-07T05:55:08.627Z,63.00
2018-03-07T05:57:40.377Z,67.75
2018-03-07T06:00:16.522Z,69.00
2018-03-07T06:02:53.312Z,64.25
2018-03-07T06:05:25.871Z,63.75
2018-03-07T06:08:12.490Z,65.25
2018-03-07T06:10:46.627Z,65.00
2018-03-07T06:13:18.503Z,65.25
2018-03-07T06:15:51.357Z,69.25
2018-03-07T06:18:23.298Z,65.50
2018-03-07T06:20:55.277Z,60.50
2018-03-07T06:23:28.543Z,69.50
2018-03-07T06:26:01.747Z,67.25
2018-03-07T06:28:32.949Z,74.25
2018-03-07T06:31:05.363Z,80.75
2018-03-07T06:33:37.606Z,75.00
2018-03-07T06:36:09.494Z,65.00
2018-03-07T06:38:41.401Z,67.25
2018-03-07T06:41:12.926Z,65.25
2018-03-07T06:43:44.453Z,67.00
2018-03-07T06:46:16.122Z,70.00
2018-03-07T06:48:47.702Z,68.75
2018-03-07T06:51:19.751Z,60.25
2018-03-07T06:56:40.323Z,69.50
2018-03-07T06:59:12.438Z,67.50
2018-03-07T07:01:50.113Z,59.75
2018-03-07T07:04:24.615Z,71.75
2018-03-07T07:07:04.713Z,69.00
2018-03-07T07:09:36.165Z,60.00
2018-03-07T07:12:15.440Z,68.75
2018-03-07T07:14:46.713Z,59.00
2018-03-07T07:17:19.021Z,59.25
2018-03-07T07:22:46.560Z,56.75
2018-03-07T07:25:17.868Z,64.00
2018-03-07T07:27:52.822Z,58.50
2018-03-07T07:30:25.908Z,60.50
2018-03-07T07:32:57.574Z,58.25
2018-03-07T07:35:34.947Z,45.75
2018-03-07T07:38:08.604Z,60.75
2018-03-07T07:40:40.331Z,56.00
2018-03-07T07:43:13.387Z,58.25
2018-03-07T07:45:45.630Z,53.50
2018-03-07T07:48:21.040Z,58.00
2018-03-07T07:50:53.861Z,55.00
2018-03-07T07:53:26.626Z,53.25
2018-03-07T07:55:58.230Z,53.25
2018-03-07T07:58:29.587Z,64.00
2018-03-07T08:01:01.753Z,50.50
2018-03-07T08:03:33.518Z,57.25
2018-03-07T08:06:06.467Z,49.00
2018-03-07T08:08:38.257Z,48.25
2018-03-07T08:11:13.553Z,49.00
2018-03-07T08:13:46.626Z,53.00
2018-03-07T08:16:19.036Z,53.00
2018-03-07T08:18:50.574Z,52.50
2018-03-07T08:21:23.248Z,50.50
2018-03-07T08:24:05.899Z,47.00
2018-03-07T08:26:38.401Z,48.50
2018-03-07T08:29:21.329Z,53.00
2018-03-07T08:31:56.401Z,44.25
2018-03-07T08:34:27.853Z,49.25
2018-03-07T08:37:00.077Z,46.25
2018-03-07T08:39:34.735Z,51.00
2018-03-07T08:42:09.910Z,48.75
2018-03-07T08:44:51.477Z,46.25
2018-03-07T08:47:23.882Z,43.75
2018-03-07T08:49:55.674Z,47.25
2018-03-07T08:52:27.132Z,42.75
2018-03-07T08:54:58.777Z,48.50
2018-03-07T08:57:31.611Z,40.25
2018-03-07T09:00:16.260Z,42.00
2018-03-07T09:02:48.654Z,39.25
2018-03-07T09:05:20.335Z,35.50
2018-03-07T09:07:52.846Z,35.25
2018-03-07T09:10:24.808Z,41.25
2018-03-07T09:12:56.107Z,41.25
2018-03-07T09:15:29.279Z,38.00
2018-03-07T09:18:00.691Z,38.50
2018-03-07T09:20:32.564Z,46.50
2018-03-07T09:23:03.825Z,44.00
2018-03-07T09:25:36.141Z,44.00
2018-03-07T09:28:25.834Z,46.50
2018-03-07T09:30:58.271Z,44.25
2018-03-07T09:33:31.770Z,44.00
2018-03-07T09:36:03.447Z,37.25
2018-03-07T09:38:35.349Z,37.00
2018-03-07T09:41:10.410Z,39.50
2018-03-07T09:43:43.729Z,41.75
2018-03-07T09:46:15.515Z,39.75
2018-03-07T09:48:48.322Z,48.00
2018-03-07T09:51:21.792Z,39.25
2018-03-07T09:53:55.902Z,46.00
2018-03-07T09:56:27.926Z,49.75
2018-03-07T09:58:58.845Z,45.00
2018-03-07T10:01:31.234Z,43.00
2018-03-07T10:04:03.517Z,39.00
2018-03-07T10:06:35.370Z,43.25
2018-03-07T10:09:08.151Z,39.25
2018-03-07T10:11:40.182Z,40.75
2018-03-07T10:14:12.302Z,41.75
2018-03-07T10:16:44.681Z,46.00
2018-03-07T10:19:17.001Z,45.50
2018-03-07T10:21:49.357Z,40.50
2018-03-07T10:24:21.208Z,43.00
2018-03-07T10:26:52.904Z,36.25
2018-03-07T10:29:24.260Z,33.50
2018-03-07T10:31:56.055Z,39.50
2018-03-07T10:34:27.874Z,37.00
2018-03-07T10:36:59.596Z,37.75
2018-03-07T10:39:31.347Z,34.75
2018-03-07T10:42:07.036Z,40.00
2018-03-07T10:44:43.188Z,34.00
2018-03-07T10:47:15.096Z,40.75
2018-03-07T10:49:46.861Z,36.75
2018-03-07T10:52:31.744Z,37.50
2018-03-07T10:55:04.266Z,32.50
2018-03-07T10:57:38.680Z,43.75
2018-03-07T11:00:20.645Z,37.50
2018-03-07T11:02:58.719Z,35.25
2018-03-07T11:05:32.088Z,40.50
2018-03-07T11:08:08.483Z,32.25
2018-03-07T11:10:39.845Z,42.50
2018-03-07T11:13:11.623Z,36.25
2018-03-07T11:15:43.836Z,39.00
2018-03-07T11:18:18.075Z,35.25
2018-03-07T11:20:49.896Z,36.75
2018-03-07T11:23:27.156Z,33.75
2018-03-07T11:25:58.783Z,30.00
2018-03-07T11:28:29.894Z,34.75
2018-03-07T11:31:03.890Z,25.00
2018-03-07T11:33:36.784Z,34.50
2018-03-07T11:36:13.413Z,28.75
2018-03-07T11:38:45.663Z,24.00
2018-03-07T11:41:18.898Z,35.00
2018-03-07T11:43:51.051Z,27.00
2018-03-07T11:46:23.862Z,43.25
2018-03-07T11:48:55.299Z,35.00
2018-03-07T11:51:26.473Z,35.75
2018-03-07T11:53:58.408Z,42.50
2018-03-07T11:56:30.734Z,52.25
2018-03-07T11:59:01.596Z,44.25
2018-03-07T12:01:33.304Z,45.50
2018-03-07T12:04:04.431Z,47.75
2018-03-07T12:06:35.594Z,48.75
2018-03-07T12:09:08.010Z,39.00
2018-03-07T12:11:40.689Z,41.25
2018-03-07T12:14:12.709Z,42.75
2018-03-07T12:16:45.196Z,41.25
2018-03-07T12:19:18.823Z,46.50
2018-03-07T12:21:49.928Z,40.00
2018-03-07T12:24:22.664Z,43.50
2018-03-07T12:26:53.758Z,37.25
2018-03-07T12:29:24.883Z,41.25
2018-03-07T12:31:56.657Z,45.75
2018-03-07T12:34:27.666Z,50.75
2018-03-07T12:36:58.444Z,46.75
2018-03-07T12:42:03.053Z,39.00
2018-03-07T12:44:34.684Z,50.00
2018-03-07T12:47:12.236Z,45.75
2018-03-07T12:52:07.487Z,45.75
2018-03-07T12:54:38.297Z,51.25
2018-03-07T12:57:11.108Z,45.25
2018-03-07T12:59:43.837Z,48.00
2018-03-07T13:02:16.818Z,46.00
2018-03-07T13:04:47.807Z,42.75
2018-03-07T13:07:19.062Z,44.50
2018-03-07T13:09:50.125Z,39.50
2018-03-07T13:12:22.779Z,42.50
2018-03-07T13:14:53.820Z,45.00
2018-03-07T13:17:25.051Z,44.25
2018-03-07T13:19:58.172Z,51.75
2018-03-07T13:22:30.722Z,52.25
2018-03-07T13:25:02.159Z,39.75
2018-03-07T13:27:34.732Z,37.50
2018-03-07T13:30:09.971Z,45.25
2018-03-07T13:32:43.174Z,40.75
2018-03-07T13:35:15.296Z,41.75
2018-03-07T13:37:49.563Z,46.25
2018-03-07T13:40:22.301Z,40.00
2018-03-07T13:42:55.990Z,33.00
2018-03-07T13:45:28.376Z,35.00
2018-03-07T13:48:02.148Z,38.75
2018-03-07T13:50:34.271Z,37.50
2018-03-07T13:53:07.264Z,32.00
2018-03-07T13:55:41.851Z,31.25
2018-03-07T13:58:17.803Z,33.75
2018-03-07T14:00:51.628Z,27.75
2018-03-07T14:03:39.730Z,22.50
2018-03-07T14:06:13.592Z,27.00
2018-03-07T14:08:47.418Z,27.75
2018-03-07T14:11:20.980Z,22.25
2018-03-07T14:13:53.043Z,22.50
2018-03-07T14:16:25.019Z,19.25
2018-03-07T14:18:56.707Z,17.75
2018-03-07T14:21:28.826Z,17.25
2018-03-07T14:24:01.815Z,17.25
2018-03-07T14:26:32.784Z,14.25
2018-03-07T14:29:09.205Z,12.75
2018-03-07T14:32:13.596Z,16.75
2018-03-07T14:35:08.644Z,14.25
2018-03-07T14:37:40.962Z,13.25
2018-03-07T14:40:13.178Z,11.00
2018-03-07T14:42:45.659Z,10.25
2018-03-07T14:45:20.015Z,12.75
2018-03-07T14:47:51.623Z,10.75
2018-03-07T14:50:23.971Z,12.00
2018-03-07T14:52:59.766Z,12.75
2018-03-07T14:55:31.851Z,11.25
2018-03-07T14:58:03.222Z,11.50
2018-03-07T15:00:37.426Z,10.50
2018-03-07T15:03:09.457Z,8.00
2018-03-07T15:05:40.456Z,10.00
2018-03-07T15:08:12.435Z,14.25
2018-03-07T15:10:43.379Z,11.00
2018-03-07T15:13:15.911Z,10.00
2018-03-07T15:15:49.007Z,10.00
2018-03-07T15:18:22.450Z,8.50
2018-03-07T15:20:54.021Z,10.25
2018-03-07T15:23:25.755Z,10.75
2018-03-07T15:25:57.746Z,13.00
2018-03-07T15:28:29.361Z,13.00
2018-03-07T15:31:02.529Z,11.25
2018-03-07T15:33:34.827Z,17.00
2018-03-07T15:36:06.236Z,9.75
2018-03-07T15:38:37.506Z,11.00
2018-03-07T15:41:09.047Z,11.00
2018-03-07T15:43:43.224Z,12.50
2018-03-07T15:49:00.913Z,10.00
2018-03-07T15:51:33.304Z,30.50
2018-03-07T15:54:07.953Z,13.75
2018-03-07T15:56:39.004Z,13.50
2018-03-07T15:59:11.123Z,10.25
2018-03-07T16:01:42.961Z,11.50
2018-03-07T16:04:14.275Z,12.00
2018-03-07T16:06:51.353Z,19.75
2018-03-07T16:09:23.003Z,14.00
2018-03-07T16:11:53.953Z,14.25
2018-03-07T16:14:27.767Z,11.75
2018-03-07T16:16:59.038Z,12.50
2018-03-07T16:19:31.177Z,14.50
2018-03-07T16:22:04.228Z,13.50
2018-03-07T16:24:35.699Z,16.25
2018-03-07T16:27:11.850Z,9.50
2018-03-07T16:29:42.835Z,14.50
2018-03-07T16:32:14.515Z,15.50
2018-03-07T16:34:45.331Z,15.00
2018-03-07T16:37:16.474Z,14.00
2018-03-07T16:40:17.240Z,15.50
2018-03-07T16:42:49.550Z,12.00
2018-03-07T16:45:20.854Z,10.75
2018-03-07T16:47:51.902Z,9.75
2018-03-07T16:50:25.913Z,8.50
2018-03-07T16:52:57.180Z,9.00
2018-03-07T16:55:33.399Z,8.00
2018-03-07T16:58:10.228Z,10.50
2018-03-07T17:00:42.334Z,15.50
2018-03-07T17:03:15.830Z,14.25
2018-03-07T17:05:48.599Z,15.00
2018-03-07T17:08:22.339Z,21.00
2018-03-07T17:10:55.722Z,15.50
2018-03-07T17:13:29.716Z,12.50
2018-03-07T17:16:04.188Z,14.25
2018-03-07T17:18:47.019Z,15.25
2018-03-07T17:21:21.276Z,17.50
2018-03-07T17:24:03.242Z,14.50
2018-03-07T17:26:38.926Z,17.00
2018-03-07T17:29:16.656Z,14.00
2018-03-07T17:31:55.575Z,14.75
2018-03-07T17:35:00.924Z,18.50
2018-03-07T17:37:33.784Z,21.00
2018-03-07T17:40:12.345Z,13.50
2018-03-07T17:42:43.815Z,13.00
2018-03-07T17:45:30.268Z,15.75
2018-03-07T17:48:03.260Z,13.00
2018-03-07T17:50:37.744Z,13.00
2018-03-07T17:53:09.904Z,13.75
2018-03-07T17:55:43.894Z,13.50
2018-03-07T17:58:15.323Z,13.00
2018-03-07T18:00:46.846Z,10.00
2018-03-07T18:03:21.824Z,9.75
2018-03-07T18:05:54.480Z,9.25
2018-03-07T18:08:27.310Z,12.75
2018-03-07T18:11:02.166Z,10.25
2018-03-07T18:13:37.173Z,11.75
2018-03-07T18:16:09.226Z,11.75
2018-03-07T18:18:40.240Z,15.00
2018-03-07T18:21:11.388Z,12.00
2018-03-07T18:23:42.191Z,15.75
2018-03-07T18:26:13.897Z,9.75
2018-03-07T18:28:47.457Z,12.00
2018-03-07T18:31:29.651Z,15.75
2018-03-07T18:34:03.044Z,17.50
2018-03-07T18:36:34.715Z,10.00
2018-03-07T18:39:06.837Z,9.75
2018-03-07T18:41:38.699Z,16.25
2018-03-07T18:44:12.151Z,12.00
2018-03-07T18:46:43.508Z,11.25
2018-03-07T18:49:14.293Z,17.75
2018-03-07T18:51:47.359Z,12.00
2018-03-07T18:54:18.943Z,33.25
2018-03-07T18:56:49.619Z,14.50
2018-03-07T18:59:25.661Z,15.00
2018-03-07T19:02:00.029Z,9.50
2018-03-07T19:04:32.692Z,12.50
2018-03-07T19:07:03.742Z,20.00
2018-03-07T19:09:34.936Z,13.25
2018-03-07T19:12:08.512Z,14.00
2018-03-07T19:14:40.313Z,12.00
2018-03-07T19:17:11.309Z,15.25
2018-03-07T19:19:46.415Z,14.25
2018-03-07T19:22:17.355Z,12.00
2018-03-07T19:24:49.177Z,11.75
2018-03-07T19:27:21.949Z,15.50
2018-03-07T19:29:52.916Z,11.75
2018-03-07T19:32:24.604Z,12.50
2018-03-07T19:34:55.642Z,20.75
2018-03-07T19:37:36.986Z,16.75
2018-03-07T19:40:08.177Z,14.50
2018-03-07T19:42:38.951Z,15.50
2018-03-07T19:45:10.316Z,15.25
2018-03-07T19:47:44.045Z,13.50
2018-03-07T19:50:20.080Z,20.00
2018-03-07T19:52:51.451Z,16.50
2018-03-07T19:55:24.718Z,18.50
2018-03-07T19:57:59.503Z,16.50
2018-03-07T20:00:32.142Z,20.25
2018-03-07T20:03:05.739Z,18.25
2018-03-07T20:05:38.521Z,20.25
2018-03-07T20:08:09.610Z,19.75
2018-03-07T20:10:40.268Z,20.75
2018-03-07T20:13:11.379Z,24.75
2018-03-07T20:15:42.511Z,22.75
2018-03-07T20:18:13.493Z,28.25
2018-03-07T20:20:45.246Z,24.50
2018-03-07T20:23:16.209Z,34.75
2018-03-07T20:25:47.966Z,24.25
2018-03-07T20:30:54.443Z,33.50
2018-03-07T20:33:25.033Z,44.00
2018-03-07T20:35:55.839Z,48.50
2018-03-07T20:38:28.482Z,43.50
2018-03-07T20:40:59.486Z,42.00
2018-03-07T20:43:31.321Z,40.25
2018-03-07T20:46:03.249Z,45.00
2018-03-07T20:48:34.501Z,49.00
2018-03-07T20:51:05.370Z,51.50
2018-03-07T20:53:36.156Z,40.00
2018-03-07T20:56:07.157Z,52.25
2018-03-07T20:58:38.524Z,55.50
2018-03-07T21:03:39.806Z,61.00
2018-03-07T21:06:11.345Z,55.75
2018-03-07T21:08:44.009Z,44.50
2018-03-07T21:11:15.969Z,44.25
2018-03-07T21:13:48.388Z,41.50
2018-03-07T21:16:20.387Z,41.00
2018-03-07T21:18:53.145Z,29.25
2018-03-07T21:21:25.963Z,33.25
2018-03-07T21:23:58.155Z,34.00
2018-03-07T21:26:30.155Z,26.25
2018-03-07T21:29:02.617Z,32.50
2018-03-07T21:31:39.846Z,33.00
2018-03-07T21:34:14.234Z,33.00
2018-03-07T21:36:45.206Z,25.25
2018-03-07T21:39:17.109Z,22.50
2018-03-07T21:41:47.898Z,29.50
2018-03-07T21:44:22.696Z,23.50
2018-03-07T21:46:53.873Z,28.25
2018-03-07T21:49:26.583Z,28.25
2018-03-07T21:51:57.375Z,23.25
2018-03-07T21:54:28.258Z,28.25
2018-03-07T21:57:00.643Z,32.75
2018-03-07T21:59:34.492Z,33.50
2018-03-07T22:02:05.581Z,27.00
2018-03-07T22:04:37.502Z,35.75
2018-03-07T22:07:09.215Z,37.50
2018-03-07T22:09:40.511Z,49.00
2018-03-07T22:12:11.662Z,41.50
2018-03-07T22:14:43.264Z,46.00
2018-03-07T22:17:14.773Z,41.50
2018-03-07T22:19:53.525Z,45.75
2018-03-07T22:22:25.166Z,51.25
2018-03-07T22:24:56.381Z,57.50
2018-03-07T22:27:27.416Z,66.00
2018-03-07T22:29:58.289Z,50.75
2018-03-07T22:32:29.614Z,58.50
2018-03-07T22:35:01.251Z,63.00
2018-03-07T22:37:33.191Z,62.25
2018-03-07T22:40:04.685Z,60.50
2018-03-07T22:42:36.637Z,56.50
2018-03-07T22:45:08.676Z,60.75
2018-03-07T22:47:40.161Z,59.00
2018-03-07T22:50:12.783Z,63.00
2018-03-07T22:52:43.579Z,58.50
2018-03-07T22:55:14.916Z,53.25
2018-03-07T22:57:46.074Z,55.75
2018-03-07T23:00:25.920Z,62.25
2018-03-07T23:02:56.976Z,64.25
2018-03-07T23:05:28.353Z,54.25
2018-03-07T23:07:59.508Z,56.75
2018-03-07T23:10:31.626Z,54.75
2018-03-07T23:13:03.114Z,52.75
2018-03-07T23:15:35.057Z,57.25
2018-03-07T23:18:06.497Z,59.75
2018-03-07T23:20:43.723Z,57.25
2018-03-07T23:23:17.053Z,59.00
2018-03-07T23:25:48.305Z,61.50
2018-03-07T23:28:19.595Z,60.50
2018-03-07T23:30:51.326Z,65.75
2018-03-07T23:33:22.724Z,63.25
2018-03-07T23:35:54.035Z,64.25
2018-03-07T23:38:25.095Z,56.00
2018-03-07T23:40:56.230Z,68.00
2018-03-07T23:43:27.680Z,53.00
2018-03-07T23:45:58.987Z,65.25
2018-03-07T23:48:30.343Z,65.25
2018-03-07T23:51:01.546Z,57.75
2018-03-07T23:53:33.698Z,67.00
2018-03-07T23:56:06.100Z,62.25
2018-03-07T23:58:38.966Z,67.00
